Time,TemperatureF,DewpointF,PressureIn,WindDirection,WindDirectionDegrees,WindSpeedMPH,WindSpeedGustMPH,Humidity,HourlyPrecipIn,Conditions,Clouds,dailyrainin,SolarRadiationWatts/m^2,SoftwareType,DateUTC
2013-02-07 00:01:00,22.9,20.7,30.17,East,101,0.0,0.0,91,0.00,RA,,0.00,0.0,WeatherDisplay:10.37,2013-02-07 06:01:00,
2013-02-07 00:06:00,22.9,20.7,30.17,East,101,0.0,0.0,91,0.00,RA,,0.00,0.0,WeatherDisplay:10.37,2013-02-07 06:06:00,
2013-02-07 00:11:00,22.8,20.6,30.17,East,101,0.0,0.0,91,0.00,OVC,,0.00,0.0,WeatherDisplay:10.37,2013-02-07 06:11:00,
2013-02-07 00:16:00,22.9,20.9,30.17,East,101,0.0,0.0,92,0.00,OVC,,0.00,0.0,WeatherDisplay:10.37,2013-02-07 06:16:00,
2013-02-07 00:21:00,22.9,20.9,30.17,East,101,0.0,0.0,92,0.00,OVC,,0.00,0.0,WeatherDisplay:10.37,2013-02-07 06:21:00,
2013-02-07 00:26:00,23.0,21.0,30.17,East,101,0.0,0.0,92,0.00,OVC,,0.00,0.0,WeatherDisplay:10.37,2013-02-07 06:26:00,
2013-02-07 00:31:00,23.0,21.0,30.17,East,101,0.0,0.0,92,0.00,OVC,,0.00,0.0,WeatherDisplay:10.37,2013-02-07 06:31:00,
2013-02-07 00:36:00,23.0,21.0,30.17,East,101,0.0,0.0,92,0.00,OVC,,0.00,0.0,WeatherDisplay:10.37,2013-02-07 06:36:00,
2013-02-07 00:41:00,23.0,21.0,30.17,East,101,0.0,0.0,92,0.00,OVC,,0.00,0.0,WeatherDisplay:10.37,2013-02-07 06:41:00,
2013-02-07 00:46:00,23.1,21.1,30.17,East,101,0.0,0.0,92,0.00,OVC,,0.00,0.0,WeatherDisplay:10.37,2013-02-07 06:46:00,
2013-02-07 00:51:00,23.1,21.1,30.17,East,101,1.1,0.0,92,0.00,OVC,,0.00,0.0,WeatherDisplay:10.37,2013-02-07 06:51:00,
2013-02-07 00:56:00,23.1,20.9,30.17,East,101,0.0,0.0,91,0.00,OVC,,0.00,0.0,WeatherDisplay:10.37,2013-02-07 06:56:00,
2013-02-07 01:01:00,23.0,20.8,30.17,East,101,0.0,0.0,91,0.00,OVC,,0.00,0.0,WeatherDisplay:10.37,2013-02-07 07:01:00,
2013-02-07 01:07:00,23.0,21.0,30.17,East,101,0.0,0.0,92,0.00,OVC,,0.00,0.0,WeatherDisplay:10.37,2013-02-07 07:07:00,
2013-02-07 01:12:00,23.0,21.0,30.16,East,101,0.0,0.0,92,0.00,OVC,,0.00,0.0,WeatherDisplay:10.37,2013-02-07 07:12:00,
2013-02-07 01:17:00,22.9,20.9,30.16,East,101,0.0,0.0,92,0.00,OVC,,0.00,0.0,WeatherDisplay:10.37,2013-02-07 07:17:00,
2013-02-07 01:22:00,22.9,20.9,30.16,East,101,0.0,0.0,92,0.00,OVC,,0.00,0.0,WeatherDisplay:10.37,2013-02-07 07:22:00,
2013-02-07 01:27:00,22.8,20.8,30.16,East,101,0.0,0.0,92,0.00,OVC,,0.00,0.0,WeatherDisplay:10.37,2013-02-07 07:27:00,
2013-02-07 01:32:00,22.8,20.8,30.16,East,101,0.0,0.0,92,0.00,OVC,,0.00,0.0,WeatherDisplay:10.37,2013-02-07 07:32:00,
2013-02-07 01:37:00,22.8,20.8,30.16,East,101,0.0,0.0,92,0.00,OVC,,0.00,0.0,WeatherDisplay:10.37,2013-02-07 07:37:00,
2013-02-07 01:42:00,22.9,20.9,30.16,East,101,0.0,0.0,92,0.00,OVC,,0.00,0.0,WeatherDisplay:10.37,2013-02-07 07:42:00,
2013-02-07 01:47:00,23.0,21.0,30.16,East,101,1.1,1.1,92,0.00,OVC,,0.00,0.0,WeatherDisplay:10.37,2013-02-07 07:47:00,
2013-02-07 01:52:00,22.9,20.9,30.16,East,101,1.1,1.1,92,0.00,OVC,,0.00,0.0,WeatherDisplay:10.37,2013-02-07 07:52:00,
2013-02-07 01:57:00,22.9,20.9,30.16,East,101,0.0,0.0,92,0.00,OVC,,0.00,0.0,WeatherDisplay:10.37,2013-02-07 07:57:00,
2013-02-07 02:02:00,22.9,20.9,30.16,East,101,0.0,0.0,92,0.00,OVC,,0.00,0.0,WeatherDisplay:10.37,2013-02-07 08:02:00,
2013-02-07 02:07:00,23.0,21.0,30.16,East,101,0.0,0.0,92,0.00,OVC,,0.00,0.0,WeatherDisplay:10.37,2013-02-07 08:07:00,
2013-02-07 02:12:00,23.0,21.0,30.16,East,101,0.0,0.0,92,0.00,OVC,,0.00,0.0,WeatherDisplay:10.37,2013-02-07 08:12:00,
2013-02-07 02:17:00,23.0,21.0,30.16,East,101,0.0,0.0,92,0.00,OVC,,0.00,0.0,WeatherDisplay:10.37,2013-02-07 08:17:00,
2013-02-07 02:22:00,23.1,21.1,30.16,East,101,0.0,0.0,92,0.00,OVC,,0.00,0.0,WeatherDisplay:10.37,2013-02-07 08:22:00,
2013-02-07 02:27:00,23.1,21.1,30.16,East,101,0.0,0.0,92,0.00,OVC,,0.00,0.0,WeatherDisplay:10.37,2013-02-07 08:27:00,
2013-02-07 02:32:00,23.2,21.0,30.16,East,101,0.0,0.0,91,0.00,OVC,,0.00,0.0,WeatherDisplay:10.37,2013-02-07 08:32:00,
2013-02-07 02:37:00,23.3,21.1,30.17,East,101,0.0,0.0,91,0.00,OVC,,0.00,0.0,WeatherDisplay:10.37,2013-02-07 08:37:00,
2013-02-07 02:42:00,23.2,21.0,30.17,East,101,1.1,1.1,91,0.00,OVC,,0.00,0.0,WeatherDisplay:10.37,2013-02-07 08:42:00,
2013-02-07 02:47:00,23.2,21.0,30.17,East,101,0.0,0.1,91,0.00,OVC,,0.00,0.0,WeatherDisplay:10.37,2013-02-07 08:47:00,
2013-02-07 02:52:00,23.1,20.9,30.16,East,101,0.0,0.0,91,0.00,OVC,,0.00,0.0,WeatherDisplay:10.37,2013-02-07 08:52:00,
2013-02-07 02:57:00,23.1,20.9,30.16,East,95,3.5,3.5,91,0.00,OVC,,0.00,0.0,WeatherDisplay:10.37,2013-02-07 08:57:00,
2013-02-07 03:02:00,23.1,20.9,30.16,East,95,1.1,0.0,91,0.00,OVC,,0.00,0.0,WeatherDisplay:10.37,2013-02-07 09:02:00,
2013-02-07 03:07:00,23.1,20.9,30.16,East,95,0.0,0.0,91,0.00,OVC,,0.00,0.0,WeatherDisplay:10.37,2013-02-07 09:07:00,
2013-02-07 03:12:00,23.0,20.8,30.16,East,95,0.0,0.0,91,0.00,OVC,,0.00,0.0,WeatherDisplay:10.37,2013-02-07 09:12:00,
2013-02-07 03:17:00,23.0,20.8,30.16,East,95,0.0,0.0,91,0.00,OVC,,0.00,0.0,WeatherDisplay:10.37,2013-02-07 09:17:00,
2013-02-07 03:22:00,23.0,20.8,30.15,East,97,2.3,2.3,91,0.00,OVC,,0.00,0.0,WeatherDisplay:10.37,2013-02-07 09:22:00,
2013-02-07 03:27:00,23.0,20.8,30.15,East,97,0.0,0.0,91,0.00,OVC,,0.00,0.0,WeatherDisplay:10.37,2013-02-07 09:27:00,
2013-02-07 03:32:00,23.0,20.8,30.15,East,97,0.0,0.0,91,0.00,OVC,,0.00,0.0,WeatherDisplay:10.37,2013-02-07 09:32:00,
2013-02-07 03:37:00,23.0,20.8,30.15,East,85,2.3,2.3,91,0.00,OVC,,0.00,0.0,WeatherDisplay:10.37,2013-02-07 09:37:00,
2013-02-07 03:42:00,22.9,20.7,30.15,ENE,78,0.0,0.0,91,0.00,OVC,,0.00,0.0,WeatherDisplay:10.37,2013-02-07 09:42:00,
2013-02-07 03:47:00,22.9,20.7,30.15,ENE,76,2.3,0.0,91,0.00,OVC,,0.00,0.0,WeatherDisplay:10.37,2013-02-07 09:47:00,
2013-02-07 03:52:00,22.7,20.5,30.15,ENE,76,0.0,0.0,91,0.00,OVC,,0.00,0.0,WeatherDisplay:10.37,2013-02-07 09:52:00,
2013-02-07 03:57:00,22.8,20.6,30.15,ENE,76,0.0,0.0,91,0.00,OVC,,0.00,0.0,WeatherDisplay:10.37,2013-02-07 09:57:00,
2013-02-07 04:02:00,22.7,20.5,30.15,East,81,1.1,1.1,91,0.00,OVC,,0.00,0.0,WeatherDisplay:10.37,2013-02-07 10:02:00,
2013-02-07 04:07:00,22.7,20.5,30.15,East,79,1.1,0.0,91,0.00,OVC,,0.00,0.0,WeatherDisplay:10.37,2013-02-07 10:07:00,
2013-02-07 04:12:00,22.6,20.4,30.15,ENE,77,0.0,0.0,91,0.00,OVC,,0.00,0.0,WeatherDisplay:10.37,2013-02-07 10:12:00,
2013-02-07 04:17:00,22.6,20.4,30.15,ENE,77,0.0,0.0,91,0.00,OVC,,0.00,0.0,WeatherDisplay:10.37,2013-02-07 10:17:00,
2013-02-07 04:22:00,22.6,20.4,30.15,ENE,74,2.3,2.3,91,0.00,OVC,,0.00,0.0,WeatherDisplay:10.37,2013-02-07 10:22:00,
2013-02-07 04:27:00,22.6,20.4,30.15,ENE,74,1.1,0.0,91,0.00,OVC,,0.00,0.0,WeatherDisplay:10.37,2013-02-07 10:27:00,
2013-02-07 04:32:00,22.6,20.4,30.15,ENE,72,2.3,2.3,91,0.00,OVC,,0.00,0.0,WeatherDisplay:10.37,2013-02-07 10:32:00,
2013-02-07 04:37:00,22.7,20.5,30.16,East,84,2.0,0.0,91,0.00,OVC,,0.00,0.0,WeatherDisplay:10.37,2013-02-07 10:37:00,
2013-02-07 04:42:00,22.7,20.5,30.16,East,82,0.0,0.0,91,0.00,OVC,,0.00,0.0,WeatherDisplay:10.37,2013-02-07 10:42:00,
2013-02-07 04:47:00,22.7,20.5,30.16,East,83,0.0,0.0,91,0.00,OVC,,0.00,0.0,WeatherDisplay:10.37,2013-02-07 10:47:00,
2013-02-07 04:52:00,22.7,20.5,30.16,East,83,0.0,0.0,91,0.00,OVC,,0.00,0.0,WeatherDisplay:10.37,2013-02-07 10:52:00,
2013-02-07 04:57:00,22.6,20.4,30.16,East,83,0.0,0.0,91,0.00,OVC,,0.00,0.0,WeatherDisplay:10.37,2013-02-07 10:57:00,
2013-02-07 05:02:00,22.7,20.5,30.16,East,83,0.0,0.0,91,0.00,OVC,,0.00,0.0,WeatherDisplay:10.37,2013-02-07 11:02:00,
2013-02-07 05:07:00,22.7,20.5,30.15,East,81,1.1,0.0,91,0.00,OVC,,0.00,0.0,WeatherDisplay:10.37,2013-02-07 11:07:00,
2013-02-07 05:12:00,22.6,20.4,30.15,East,88,3.5,3.5,91,0.00,OVC,,0.00,0.0,WeatherDisplay:10.37,2013-02-07 11:12:00,
2013-02-07 05:17:00,22.6,20.4,30.15,East,88,0.0,0.0,91,0.00,OVC,,0.00,0.0,WeatherDisplay:10.37,2013-02-07 11:17:00,
2013-02-07 05:22:00,22.5,20.3,30.15,East,88,0.0,0.0,91,0.00,OVC,,0.00,0.0,WeatherDisplay:10.37,2013-02-07 11:22:00,
2013-02-07 05:27:00,22.6,20.4,30.15,East,86,1.0,1.0,91,0.00,OVC,,0.00,0.0,WeatherDisplay:10.37,2013-02-07 11:27:00,
2013-02-07 05:32:00,22.5,20.3,30.15,East,85,2.3,2.3,91,0.00,OVC,,0.00,0.0,WeatherDisplay:10.37,2013-02-07 11:32:00,
2013-02-07 05:37:00,22.5,20.3,30.15,East,85,0.0,0.0,91,0.00,OVC,,0.00,0.0,WeatherDisplay:10.37,2013-02-07 11:37:00,
2013-02-07 05:42:00,22.6,20.4,30.15,ENE,74,2.3,0.0,91,0.00,OVC,,0.00,0.0,WeatherDisplay:10.37,2013-02-07 11:42:00,
2013-02-07 05:47:00,22.7,20.5,30.15,ENE,74,0.0,0.0,91,0.00,OVC,,0.00,0.0,WeatherDisplay:10.37,2013-02-07 11:47:00,
2013-02-07 05:52:00,22.7,20.5,30.15,ENE,74,0.0,0.0,91,0.00,OVC,,0.00,0.0,WeatherDisplay:10.37,2013-02-07 11:52:00,
2013-02-07 05:57:00,22.9,20.7,30.15,ENE,74,0.0,0.0,91,0.00,OVC,,0.00,0.0,WeatherDisplay:10.37,2013-02-07 11:57:00,
2013-02-07 06:02:00,22.9,20.7,30.15,ENE,71,1.1,1.1,91,0.00,OVC,,0.00,0.0,WeatherDisplay:10.37,2013-02-07 12:02:00,
2013-02-07 06:07:00,22.9,20.7,30.15,ENE,71,0.0,0.0,91,0.00,OVC,,0.00,0.0,WeatherDisplay:10.37,2013-02-07 12:07:00,
2013-02-07 06:12:00,22.8,20.6,30.15,ENE,71,0.0,0.0,91,0.00,OVC,,0.00,0.0,WeatherDisplay:10.37,2013-02-07 12:12:00,
2013-02-07 06:17:00,22.8,20.6,30.15,ENE,71,1.1,0.0,91,0.00,OVC,,0.00,0.0,WeatherDisplay:10.37,2013-02-07 12:17:00,
2013-02-07 06:22:00,22.7,20.5,30.15,ENE,77,0.0,0.0,91,0.00,OVC,,0.00,0.0,WeatherDisplay:10.37,2013-02-07 12:22:00,
2013-02-07 06:28:00,22.7,20.5,30.15,ENE,77,1.1,0.0,91,0.00,OVC,,0.00,0.0,WeatherDisplay:10.37,2013-02-07 12:28:00,
2013-02-07 06:33:00,22.6,20.4,30.15,East,81,0.0,0.0,91,0.00,OVC,,0.00,0.0,WeatherDisplay:10.37,2013-02-07 12:33:00,
2013-02-07 06:38:00,22.6,20.4,30.15,East,81,1.1,1.1,91,0.00,OVC,,0.00,0.0,WeatherDisplay:10.37,2013-02-07 12:38:00,
2013-02-07 06:43:00,22.5,20.3,30.15,East,81,1.1,0.0,91,0.00,OVC,,0.00,0.0,WeatherDisplay:10.37,2013-02-07 12:43:00,
2013-02-07 06:48:00,22.5,20.3,30.15,East,82,2.3,2.3,91,0.00,OVC,,0.00,0.0,WeatherDisplay:10.37,2013-02-07 12:48:00,
2013-02-07 06:53:00,22.4,20.2,30.16,East,82,0.0,0.0,91,0.00,OVC,,0.00,0.0,WeatherDisplay:10.37,2013-02-07 12:53:00,
2013-02-07 06:58:00,22.4,20.2,30.16,East,82,1.1,1.1,91,0.00,OVC,,0.00,0.0,WeatherDisplay:10.37,2013-02-07 12:58:00,
2013-02-07 07:03:00,22.4,20.2,30.16,East,82,0.0,0.0,91,0.00,OVC,,0.00,0.0,WeatherDisplay:10.37,2013-02-07 13:03:00,
2013-02-07 07:08:00,22.4,20.2,30.16,East,82,1.1,0.0,91,0.00,OVC,,0.00,0.0,WeatherDisplay:10.37,2013-02-07 13:08:00,
2013-02-07 07:13:00,22.4,20.4,30.16,East,82,0.0,0.0,92,0.00,OVC,,0.00,0.0,WeatherDisplay:10.37,2013-02-07 13:13:00,
2013-02-07 07:18:00,22.4,20.2,30.16,ENE,64,0.0,0.0,91,0.00,OVC,,0.00,0.0,WeatherDisplay:10.37,2013-02-07 13:18:00,
2013-02-07 07:23:00,22.4,20.2,30.16,ENE,71,1.1,1.1,91,0.00,OVC,,0.00,0.0,WeatherDisplay:10.37,2013-02-07 13:23:00,
2013-02-07 07:28:00,22.4,20.2,30.16,ENE,60,0.0,0.0,91,0.00,OVC,,0.00,0.0,WeatherDisplay:10.37,2013-02-07 13:28:00,
2013-02-07 07:33:00,22.5,20.3,30.16,ENE,57,0.0,0.0,91,0.00,OVC,,0.00,0.0,WeatherDisplay:10.37,2013-02-07 13:33:00,
2013-02-07 07:38:00,22.6,20.4,30.17,ENE,57,0.0,0.0,91,0.00,OVC,,0.00,0.0,WeatherDisplay:10.37,2013-02-07 13:38:00,
2013-02-07 07:43:00,22.6,20.4,30.17,ENE,57,0.0,0.0,91,0.00,OVC,,0.00,0.0,WeatherDisplay:10.37,2013-02-07 13:43:00,
2013-02-07 07:48:00,22.7,20.5,30.17,ENE,57,0.0,0.0,91,0.00,OVC,,0.00,0.0,WeatherDisplay:10.37,2013-02-07 13:48:00,
2013-02-07 07:53:00,22.7,20.5,30.17,ENE,57,0.0,0.0,91,0.00,OVC,,0.00,0.0,WeatherDisplay:10.37,2013-02-07 13:53:00,
2013-02-07 07:58:00,22.8,20.6,30.17,ENE,57,0.0,0.0,91,0.00,OVC,,0.00,0.0,WeatherDisplay:10.37,2013-02-07 13:58:00,
2013-02-07 08:03:00,22.9,20.7,30.17,ENE,57,0.0,0.0,91,0.00,OVC,,0.00,0.0,WeatherDisplay:10.37,2013-02-07 14:03:00,
2013-02-07 08:08:00,22.9,20.7,30.17,East,85,1.1,0.0,91,0.00,OVC,,0.00,0.0,WeatherDisplay:10.37,2013-02-07 14:08:00,
2013-02-07 08:13:00,22.9,20.7,30.17,East,82,2.3,2.3,91,0.00,OVC,,0.00,0.0,WeatherDisplay:10.37,2013-02-07 14:13:00,
2013-02-07 08:18:00,22.8,20.6,30.17,East,82,1.1,1.1,91,0.00,OVC,,0.00,0.0,WeatherDisplay:10.37,2013-02-07 14:18:00,
2013-02-07 08:23:00,22.8,20.6,30.17,East,82,1.1,0.0,91,0.00,OVC,,0.00,0.0,WeatherDisplay:10.37,2013-02-07 14:23:00,
2013-02-07 08:28:00,22.6,20.1,30.17,NE,48,2.3,0.0,90,0.00,OVC,,0.00,0.0,WeatherDisplay:10.37,2013-02-07 14:28:00,
2013-02-07 08:33:00,22.6,20.4,30.17,ENE,74,0.0,0.0,91,0.00,OVC,,0.00,5.0,WeatherDisplay:10.37,2013-02-07 14:33:00,
2013-02-07 08:38:00,22.6,20.4,30.17,East,94,2.0,2.0,91,0.00,OVC,,0.00,5.0,WeatherDisplay:10.37,2013-02-07 14:38:00,
2013-02-07 08:43:00,22.6,20.4,30.17,ESE,102,0.0,0.0,91,0.00,OVC,,0.00,5.0,WeatherDisplay:10.37,2013-02-07 14:43:00,
2013-02-07 08:48:00,22.7,20.5,30.17,East,90,1.1,1.1,91,0.00,OVC,,0.00,7.0,WeatherDisplay:10.37,2013-02-07 14:48:00,
2013-02-07 08:53:00,22.7,20.5,30.17,ENE,58,1.1,1.1,91,0.00,OVC,,0.00,7.0,WeatherDisplay:10.37,2013-02-07 14:53:00,
2013-02-07 08:58:00,22.7,20.5,30.17,ENE,71,2.3,2.3,91,0.00,OVC,,0.00,7.0,WeatherDisplay:10.37,2013-02-07 14:58:00,
2013-02-07 09:03:00,22.7,20.5,30.18,ENE,74,1.1,1.1,91,0.00,OVC,,0.00,7.0,WeatherDisplay:10.37,2013-02-07 15:03:00,
2013-02-07 09:08:00,22.7,20.5,30.18,ENE,71,1.1,1.1,91,0.00,OVC,,0.00,9.0,WeatherDisplay:10.37,2013-02-07 15:08:00,
2013-02-07 09:13:00,22.7,20.5,30.18,East,88,0.0,0.0,91,0.00,OVC,,0.00,11.0,WeatherDisplay:10.37,2013-02-07 15:13:00,
2013-02-07 09:18:00,22.8,20.6,30.18,East,88,0.0,0.0,91,0.00,OVC,,0.00,12.0,WeatherDisplay:10.37,2013-02-07 15:18:00,
2013-02-07 09:23:00,22.8,20.6,30.18,East,80,1.1,1.1,91,0.00,OVC,,0.00,11.0,WeatherDisplay:10.37,2013-02-07 15:23:00,
2013-02-07 09:28:00,22.9,20.7,30.18,ENE,76,3.5,0.0,91,0.00,OVC,,0.00,11.0,WeatherDisplay:10.37,2013-02-07 15:28:00,
2013-02-07 09:33:00,22.8,20.6,30.18,ENE,57,2.3,0.0,91,0.00,OVC,,0.00,12.0,WeatherDisplay:10.37,2013-02-07 15:33:00,
2013-02-07 09:38:00,22.9,20.7,30.19,ENE,63,1.1,1.1,91,0.00,OVC,,0.00,12.0,WeatherDisplay:10.37,2013-02-07 15:38:00,
2013-02-07 09:43:00,22.9,20.7,30.19,ENE,67,1.1,0.0,91,0.00,OVC,,0.00,12.0,WeatherDisplay:10.37,2013-02-07 15:43:00,
2013-02-07 09:48:00,22.9,20.7,30.19,ENE,78,4.6,0.0,91,0.00,OVC,,0.00,12.0,WeatherDisplay:10.37,2013-02-07 15:48:00,
2013-02-07 09:53:00,22.9,20.7,30.19,ENE,67,2.3,2.3,91,0.00,OVC,,0.00,12.0,WeatherDisplay:10.37,2013-02-07 15:53:00,
2013-02-07 09:58:00,22.8,20.6,30.19,ENE,76,1.1,1.1,91,0.00,OVC,,0.00,14.0,WeatherDisplay:10.37,2013-02-07 15:58:00,
2013-02-07 10:03:00,22.8,20.6,30.19,East,83,0.0,0.0,91,0.00,OVC,,0.00,14.0,WeatherDisplay:10.37,2013-02-07 16:03:00,
2013-02-07 10:08:00,22.8,20.6,30.19,East,80,0.0,0.2,91,0.00,OVC,,0.00,16.0,WeatherDisplay:10.37,2013-02-07 16:08:00,
2013-02-07 10:13:00,22.9,20.7,30.19,ENE,66,1.1,1.1,91,0.00,OVC,,0.00,18.0,WeatherDisplay:10.37,2013-02-07 16:13:00,
2013-02-07 10:18:00,22.9,20.7,30.19,NNE,26,1.1,1.1,91,0.00,OVC,,0.00,18.0,WeatherDisplay:10.37,2013-02-07 16:18:00,
2013-02-07 10:23:00,22.9,20.7,30.19,ENE,60,2.3,2.3,91,0.00,OVC,,0.00,16.0,WeatherDisplay:10.37,2013-02-07 16:23:00,
2013-02-07 10:28:00,23.0,20.8,30.19,ENE,60,0.0,0.0,91,0.00,OVC,,0.00,16.0,WeatherDisplay:10.37,2013-02-07 16:28:00,
2013-02-07 10:33:00,23.1,20.9,30.19,ENE,60,0.0,0.0,91,0.00,OVC,,0.00,21.0,WeatherDisplay:10.37,2013-02-07 16:33:00,
2013-02-07 10:39:00,23.2,21.0,30.19,East,80,2.3,2.3,91,0.00,OVC,,0.00,21.0,WeatherDisplay:10.37,2013-02-07 16:39:00,
2013-02-07 10:44:00,23.2,21.0,30.19,ENE,75,1.1,1.1,91,0.00,OVC,,0.00,19.0,WeatherDisplay:10.37,2013-02-07 16:44:00,
2013-02-07 10:49:00,23.1,20.9,30.19,East,81,2.3,2.3,91,0.00,OVC,,0.00,18.0,WeatherDisplay:10.37,2013-02-07 16:49:00,
2013-02-07 10:54:00,23.2,21.0,30.19,East,81,1.1,1.1,91,0.00,OVC,,0.00,18.0,WeatherDisplay:10.37,2013-02-07 16:54:00,
2013-02-07 10:59:00,23.2,21.0,30.19,East,80,1.1,1.1,91,0.00,OVC,,0.00,16.0,WeatherDisplay:10.37,2013-02-07 16:59:00,
2013-02-07 11:04:00,23.2,21.0,30.19,East,80,1.1,0.0,91,0.00,OVC,,0.00,16.0,WeatherDisplay:10.37,2013-02-07 17:04:00,
2013-02-07 11:09:00,23.3,21.1,30.20,ENE,76,1.1,1.1,91,0.00,OVC,,0.00,14.0,WeatherDisplay:10.37,2013-02-07 17:09:00,
2013-02-07 11:14:00,23.3,21.1,30.20,East,86,1.1,1.1,91,0.00,OVC,,0.00,12.0,WeatherDisplay:10.37,2013-02-07 17:14:00,
2013-02-07 11:19:00,23.3,21.1,30.20,NE,44,2.3,2.3,91,0.00,OVC,,0.00,14.0,WeatherDisplay:10.37,2013-02-07 17:19:00,
2013-02-07 11:24:00,23.3,21.1,30.19,ENE,78,0.0,0.0,91,0.00,OVC,,0.00,12.0,WeatherDisplay:10.37,2013-02-07 17:24:00,
2013-02-07 11:29:00,23.3,21.1,30.19,East,80,1.1,0.0,91,0.00,OVC,,0.00,16.0,WeatherDisplay:10.37,2013-02-07 17:29:00,
2013-02-07 11:34:00,23.3,21.1,30.19,ENE,76,1.1,1.1,91,0.00,OVC,,0.00,16.0,WeatherDisplay:10.37,2013-02-07 17:34:00,
2013-02-07 11:39:00,23.3,21.1,30.19,ENE,63,2.3,2.3,91,0.00,OVC,,0.00,16.0,WeatherDisplay:10.37,2013-02-07 17:39:00,
2013-02-07 11:44:00,23.3,21.1,30.19,East,80,2.3,2.3,91,0.00,OVC,,0.00,18.0,WeatherDisplay:10.37,2013-02-07 17:44:00,
2013-02-07 11:49:00,23.4,21.2,30.19,ENE,78,0.0,0.0,91,0.00,OVC,,0.00,16.0,WeatherDisplay:10.37,2013-02-07 17:49:00,
2013-02-07 11:54:00,23.4,21.2,30.19,East,79,2.3,2.3,91,0.00,OVC,,0.00,14.0,WeatherDisplay:10.37,2013-02-07 17:54:00,
2013-02-07 11:59:00,23.5,21.3,30.19,East,79,1.1,1.1,91,0.00,OVC,,0.00,16.0,WeatherDisplay:10.37,2013-02-07 17:59:00,
2013-02-07 12:04:00,23.6,21.4,30.19,East,79,0.0,0.1,91,0.00,OVC,,0.00,14.0,WeatherDisplay:10.37,2013-02-07 18:04:00,
2013-02-07 12:09:00,23.7,21.5,30.19,East,79,1.1,0.0,91,0.00,OVC,,0.00,14.0,WeatherDisplay:10.37,2013-02-07 18:09:00,
2013-02-07 12:14:00,23.7,21.5,30.19,ENE,74,1.1,1.1,91,0.00,OVC,,0.00,14.0,WeatherDisplay:10.37,2013-02-07 18:14:00,
2013-02-07 12:19:00,23.6,21.1,30.19,ENE,74,0.0,0.0,90,0.00,OVC,,0.00,14.0,WeatherDisplay:10.37,2013-02-07 18:19:00,
2013-02-07 12:24:00,23.6,21.4,30.19,ENE,74,1.0,0.0,91,0.00,OVC,,0.00,16.0,WeatherDisplay:10.37,2013-02-07 18:24:00,
2013-02-07 12:29:00,23.4,20.9,30.18,ENE,78,1.1,1.1,90,0.00,OVC,,0.00,18.0,WeatherDisplay:10.37,2013-02-07 18:29:00,
2013-02-07 12:34:00,23.4,21.2,30.18,ESE,105,1.1,1.1,91,0.00,OVC,,0.00,18.0,WeatherDisplay:10.37,2013-02-07 18:34:00,
2013-02-07 12:39:00,23.5,21.3,30.18,East,79,1.1,1.1,91,0.00,OVC,,0.00,19.0,WeatherDisplay:10.37,2013-02-07 18:39:00,
2013-02-07 12:44:00,23.5,21.0,30.18,ENE,78,1.1,1.1,90,0.00,OVC,,0.00,21.0,WeatherDisplay:10.37,2013-02-07 18:44:00,
2013-02-07 12:49:00,23.5,21.3,30.18,NNE,26,2.3,2.3,91,0.00,OVC,,0.00,23.0,WeatherDisplay:10.37,2013-02-07 18:49:00,
2013-02-07 12:54:00,23.5,21.0,30.18,ESE,103,3.5,3.5,90,0.00,OVC,,0.00,23.0,WeatherDisplay:10.37,2013-02-07 18:54:00,
2013-02-07 12:59:00,23.4,20.9,30.18,NE,52,1.1,1.1,90,0.00,OVC,,0.00,23.0,WeatherDisplay:10.37,2013-02-07 18:59:00,
2013-02-07 13:04:00,23.5,21.0,30.18,East,79,0.0,0.0,90,0.00,OVC,,0.00,21.0,WeatherDisplay:10.37,2013-02-07 19:04:00,
2013-02-07 13:09:00,23.6,21.4,30.18,East,82,1.1,0.0,91,0.00,OVC,,0.00,21.0,WeatherDisplay:10.37,2013-02-07 19:09:00,
2013-02-07 13:14:00,23.7,21.2,30.18,WNW,302,1.1,1.1,90,0.00,OVC,,0.00,19.0,WeatherDisplay:10.37,2013-02-07 19:14:00,
2013-02-07 13:19:00,23.8,21.3,30.17,ENE,61,0.0,0.0,90,0.00,OVC,,0.00,19.0,WeatherDisplay:10.37,2013-02-07 19:19:00,
2013-02-07 13:24:00,23.9,21.4,30.17,NNE,32,3.5,0.0,90,0.00,OVC,,0.00,23.0,WeatherDisplay:10.37,2013-02-07 19:24:00,
2013-02-07 13:29:00,24.0,21.5,30.17,ENE,63,1.1,1.1,90,0.00,OVC,,0.00,23.0,WeatherDisplay:10.37,2013-02-07 19:29:00,
2013-02-07 13:34:00,24.1,21.6,30.17,ENE,63,1.1,1.1,90,0.00,OVC,,0.00,25.0,WeatherDisplay:10.37,2013-02-07 19:34:00,
2013-02-07 13:39:00,24.3,21.8,30.17,NNE,19,1.1,1.1,90,0.00,OVC,,0.00,21.0,WeatherDisplay:10.37,2013-02-07 19:39:00,
2013-02-07 13:44:00,24.3,21.5,30.17,NE,45,3.5,3.5,89,0.00,OVC,,0.00,25.0,WeatherDisplay:10.37,2013-02-07 19:44:00,
2013-02-07 13:49:00,24.3,21.5,30.17,ENE,76,3.0,3.0,89,0.00,OVC,,0.00,25.0,WeatherDisplay:10.37,2013-02-07 19:49:00,
2013-02-07 13:54:00,24.3,21.5,30.17,ENE,61,1.1,1.1,89,0.00,OVC,,0.00,23.0,WeatherDisplay:10.37,2013-02-07 19:54:00,
2013-02-07 13:59:00,24.3,21.8,30.17,ENE,73,3.5,3.5,90,0.00,OVC,,0.00,21.0,WeatherDisplay:10.37,2013-02-07 19:59:00,
2013-02-07 14:04:00,24.3,21.5,30.17,ENE,74,5.8,5.8,89,0.00,OVC,,0.00,16.0,WeatherDisplay:10.37,2013-02-07 20:04:00,
2013-02-07 14:09:00,24.2,21.4,30.17,NE,41,1.1,0.0,89,0.00,OVC,,0.00,19.0,WeatherDisplay:10.37,2013-02-07 20:09:00,
2013-02-07 14:14:00,24.2,21.4,30.16,ENE,67,2.3,2.3,89,0.00,OVC,,0.00,14.0,WeatherDisplay:10.37,2013-02-07 20:14:00,
2013-02-07 14:19:00,24.2,21.4,30.17,North,355,4.6,4.6,89,0.00,OVC,,0.00,18.0,WeatherDisplay:10.37,2013-02-07 20:19:00,
2013-02-07 14:24:00,24.1,21.3,30.16,NNE,26,3.5,3.5,89,0.00,OVC,,0.00,19.0,WeatherDisplay:10.37,2013-02-07 20:24:00,
2013-02-07 14:29:00,24.2,21.4,30.16,East,82,2.0,2.0,89,0.00,OVC,,0.00,19.0,WeatherDisplay:10.37,2013-02-07 20:29:00,
2013-02-07 14:34:00,24.2,21.4,30.17,NNE,22,3.5,3.5,89,0.00,OVC,,0.00,16.0,WeatherDisplay:10.37,2013-02-07 20:34:00,
2013-02-07 14:39:00,24.2,21.4,30.17,ENE,69,2.3,2.3,89,0.00,OVC,,0.00,19.0,WeatherDisplay:10.37,2013-02-07 20:39:00,
2013-02-07 14:44:00,24.2,21.4,30.17,East,82,1.1,1.1,89,0.00,OVC,,0.00,18.0,WeatherDisplay:10.37,2013-02-07 20:44:00,
2013-02-07 14:49:00,24.2,21.4,30.17,ENE,57,2.3,2.3,89,0.00,OVC,,0.00,16.0,WeatherDisplay:10.37,2013-02-07 20:49:00,
2013-02-07 14:54:00,24.2,21.4,30.17,NE,45,2.3,2.3,89,0.00,OVC,,0.00,21.0,WeatherDisplay:10.37,2013-02-07 20:54:00,
2013-02-07 14:59:00,24.2,21.4,30.17,East,83,4.6,4.6,89,0.00,OVC,,0.00,18.0,WeatherDisplay:10.37,2013-02-07 20:59:00,
2013-02-07 15:04:00,24.1,21.3,30.17,NE,39,2.3,2.3,89,0.00,OVC,,0.00,14.0,WeatherDisplay:10.37,2013-02-07 21:04:00,
2013-02-07 15:09:00,24.1,21.3,30.17,ENE,62,3.5,3.5,89,0.00,OVC,,0.00,12.0,WeatherDisplay:10.37,2013-02-07 21:09:00,
2013-02-07 15:14:00,24.0,21.2,30.18,ENE,69,2.3,2.3,89,0.00,OVC,,0.00,11.0,WeatherDisplay:10.37,2013-02-07 21:14:00,
2013-02-07 15:19:00,24.0,21.2,30.18,NE,52,1.0,1.0,89,0.00,OVC,,0.00,11.0,WeatherDisplay:10.37,2013-02-07 21:19:00,
2013-02-07 15:24:00,24.0,21.2,30.18,East,93,3.0,3.0,89,0.00,OVC,,0.00,9.0,WeatherDisplay:10.37,2013-02-07 21:24:00,
2013-02-07 15:29:00,23.9,21.1,30.18,ENE,72,3.5,3.5,89,0.00,OVC,,0.00,9.0,WeatherDisplay:10.37,2013-02-07 21:29:00,
2013-02-07 15:34:00,24.0,21.2,30.18,NE,53,4.6,4.6,89,0.00,OVC,,0.00,9.0,WeatherDisplay:10.37,2013-02-07 21:34:00,
2013-02-07 15:39:00,24.0,21.2,30.17,NE,46,2.0,2.0,89,0.00,OVC,,0.00,9.0,WeatherDisplay:10.37,2013-02-07 21:39:00,
2013-02-07 15:44:00,24.0,21.2,30.17,NNE,25,4.6,4.6,89,0.00,OVC,,0.00,11.0,WeatherDisplay:10.37,2013-02-07 21:44:00,
2013-02-07 15:49:00,24.1,21.3,30.18,NE,40,3.5,3.5,89,0.00,OVC,,0.00,9.0,WeatherDisplay:10.37,2013-02-07 21:49:00,
2013-02-07 15:54:00,24.2,21.4,30.18,NE,42,2.3,2.3,89,0.00,OVC,,0.00,7.0,WeatherDisplay:10.37,2013-02-07 21:54:00,
2013-02-07 16:00:00,24.2,21.2,30.18,ENE,61,2.3,0.0,88,0.00,OVC,,0.00,7.0,WeatherDisplay:10.37,2013-02-07 22:00:00,
2013-02-07 16:05:00,24.2,21.2,30.18,NNE,18,2.3,2.3,88,0.00,OVC,,0.00,5.0,WeatherDisplay:10.37,2013-02-07 22:05:00,
2013-02-07 16:10:00,24.2,21.2,30.18,ENE,72,2.3,2.3,88,0.00,OVC,,0.00,5.0,WeatherDisplay:10.37,2013-02-07 22:10:00,
2013-02-07 16:15:00,24.3,21.3,30.19,ENE,70,1.0,1.0,88,0.00,OVC,,0.00,0.0,WeatherDisplay:10.37,2013-02-07 22:15:00,
2013-02-07 16:20:00,24.3,21.5,30.19,ENE,70,0.0,0.0,89,0.00,OVC,,0.00,0.0,WeatherDisplay:10.37,2013-02-07 22:20:00,
2013-02-07 16:25:00,24.3,21.3,30.19,East,86,1.1,0.0,88,0.00,OVC,,0.00,0.0,WeatherDisplay:10.37,2013-02-07 22:25:00,
2013-02-07 16:30:00,24.3,21.3,30.19,ENE,57,1.1,1.1,88,0.00,OVC,,0.00,0.0,WeatherDisplay:10.37,2013-02-07 22:30:00,
2013-02-07 16:35:00,24.3,21.3,30.19,ENE,66,0.0,0.1,88,0.00,OVC,,0.00,0.0,WeatherDisplay:10.37,2013-02-07 22:35:00,
2013-02-07 16:40:00,24.3,21.3,30.19,NE,34,1.0,1.0,88,0.00,OVC,,0.00,0.0,WeatherDisplay:10.37,2013-02-07 22:40:00,
2013-02-07 16:45:00,24.3,21.3,30.19,NE,42,1.1,1.1,88,0.00,OVC,,0.00,0.0,WeatherDisplay:10.37,2013-02-07 22:45:00,
2013-02-07 16:50:00,24.3,21.3,30.20,NE,56,1.1,1.1,88,0.00,OVC,,0.00,0.0,WeatherDisplay:10.37,2013-02-07 22:50:00,
2013-02-07 16:55:00,24.4,21.4,30.20,NE,56,0.0,0.1,88,0.00,OVC,,0.00,0.0,WeatherDisplay:10.37,2013-02-07 22:55:00,
2013-02-07 17:00:00,24.3,21.3,30.20,ENE,66,2.3,2.3,88,0.00,OVC,,0.00,0.0,WeatherDisplay:10.37,2013-02-07 23:00:00,
2013-02-07 17:05:00,24.3,21.3,30.21,NE,55,1.1,1.1,88,0.00,OVC,,0.00,0.0,WeatherDisplay:10.37,2013-02-07 23:05:00,
2013-02-07 17:10:00,24.3,21.3,30.21,ENE,74,2.3,2.3,88,0.00,OVC,,0.00,0.0,WeatherDisplay:10.37,2013-02-07 23:10:00,
2013-02-07 17:15:00,24.3,21.3,30.21,NE,53,0.0,0.0,88,0.00,OVC,,0.00,0.0,WeatherDisplay:10.37,2013-02-07 23:15:00,
2013-02-07 17:20:00,24.3,21.3,30.21,NE,56,3.5,3.5,88,0.00,OVC,,0.00,0.0,WeatherDisplay:10.37,2013-02-07 23:20:00,
2013-02-07 17:25:00,24.3,21.3,30.21,NE,56,2.3,2.3,88,0.00,OVC,,0.00,0.0,WeatherDisplay:10.37,2013-02-07 23:25:00,
2013-02-07 17:30:00,24.3,21.3,30.21,ENE,68,2.3,2.3,88,0.00,OVC,,0.00,0.0,WeatherDisplay:10.37,2013-02-07 23:30:00,
2013-02-07 17:35:00,24.3,21.3,30.22,ENE,66,3.5,3.5,88,0.00,OVC,,0.00,0.0,WeatherDisplay:10.37,2013-02-07 23:35:00,
2013-02-07 17:40:00,24.3,21.3,30.22,ENE,73,0.0,0.0,88,0.00,OVC,,0.00,0.0,WeatherDisplay:10.37,2013-02-07 23:40:00,
2013-02-07 17:45:00,24.3,21.3,30.22,NNE,27,0.0,0.0,88,0.00,OVC,,0.00,0.0,WeatherDisplay:10.37,2013-02-07 23:45:00,
2013-02-07 17:50:00,24.3,21.3,30.22,NE,34,4.6,4.6,88,0.00,OVC,,0.00,0.0,WeatherDisplay:10.37,2013-02-07 23:50:00,
2013-02-07 17:55:00,24.3,21.3,30.22,East,85,1.1,1.1,88,0.00,OVC,,0.00,0.0,WeatherDisplay:10.37,2013-02-07 23:55:00,
2013-02-07 18:00:00,24.4,21.4,30.22,NE,45,2.3,2.3,88,0.00,OVC,,0.00,0.0,WeatherDisplay:10.37,2013-02-08 00:00:00,
2013-02-07 18:05:00,24.4,21.6,30.23,East,79,0.0,0.0,89,0.00,OVC,,0.00,0.0,WeatherDisplay:10.37,2013-02-08 00:05:00,
2013-02-07 18:10:00,24.4,21.4,30.23,ENE,66,4.6,4.6,88,0.00,OVC,,0.00,0.0,WeatherDisplay:10.37,2013-02-08 00:10:00,
2013-02-07 18:15:00,24.4,21.4,30.23,ENE,66,0.0,0.0,88,0.00,OVC,,0.00,0.0,WeatherDisplay:10.37,2013-02-08 00:15:00,
2013-02-07 18:20:00,24.4,21.4,30.23,NE,44,1.1,0.0,88,0.00,OVC,,0.00,0.0,WeatherDisplay:10.37,2013-02-08 00:20:00,
2013-02-07 18:25:00,24.4,21.6,30.23,NE,43,1.1,0.0,89,0.00,OVC,,0.00,0.0,WeatherDisplay:10.37,2013-02-08 00:25:00,
2013-02-07 18:30:00,24.5,21.7,30.24,NE,35,1.1,1.1,89,0.00,OVC,,0.00,0.0,WeatherDisplay:10.37,2013-02-08 00:30:00,
2013-02-07 18:35:00,24.4,21.6,30.24,NNE,15,1.1,1.1,89,0.00,OVC,,0.00,0.0,WeatherDisplay:10.37,2013-02-08 00:35:00,
2013-02-07 18:40:00,24.4,21.6,30.24,NE,49,1.1,1.1,89,0.00,OVC,,0.00,0.0,WeatherDisplay:10.37,2013-02-08 00:40:00,
2013-02-07 18:45:00,24.3,21.5,30.23,NE,40,3.5,3.5,89,0.00,OVC,,0.00,0.0,WeatherDisplay:10.37,2013-02-08 00:45:00,
2013-02-07 18:50:00,24.1,21.3,30.23,ENE,57,3.5,3.5,89,0.00,OVC,,0.00,0.0,WeatherDisplay:10.37,2013-02-08 00:50:00,
2013-02-07 18:55:00,24.1,21.6,30.24,NE,51,2.3,2.3,90,0.00,OVC,,0.00,0.0,WeatherDisplay:10.37,2013-02-08 00:55:00,
2013-02-07 19:00:00,24.0,21.5,30.24,East,87,6.9,6.9,90,0.00,OVC,,0.00,0.0,WeatherDisplay:10.37,2013-02-08 01:00:00,
2013-02-07 19:05:00,23.9,21.4,30.25,East,81,2.3,2.3,90,0.00,OVC,,0.00,0.0,WeatherDisplay:10.37,2013-02-08 01:05:00,
2013-02-07 19:10:00,23.9,21.4,30.25,ENE,57,2.3,2.3,90,0.00,OVC,,0.00,0.0,WeatherDisplay:10.37,2013-02-08 01:10:00,
2013-02-07 19:15:00,23.8,21.0,30.25,East,84,2.3,0.0,89,0.00,OVC,,0.00,0.0,WeatherDisplay:10.37,2013-02-08 01:15:00,
2013-02-07 19:20:00,23.8,21.0,30.25,NNE,19,1.1,1.1,89,0.00,OVC,,0.00,0.0,WeatherDisplay:10.37,2013-02-08 01:20:00,
2013-02-07 19:25:00,23.7,20.9,30.25,NNE,28,1.1,1.1,89,0.00,OVC,,0.00,0.0,WeatherDisplay:10.37,2013-02-08 01:25:00,
2013-02-07 19:30:00,23.7,20.9,30.25,ENE,75,1.0,1.0,89,0.00,OVC,,0.00,0.0,WeatherDisplay:10.37,2013-02-08 01:30:00,
2013-02-07 19:35:00,23.7,20.9,30.25,NE,55,1.0,0.0,89,0.00,OVC,,0.00,0.0,WeatherDisplay:10.37,2013-02-08 01:35:00,
2013-02-07 19:40:00,23.6,20.8,30.26,ENE,71,1.1,1.1,89,0.00,OVC,,0.00,0.0,WeatherDisplay:10.37,2013-02-08 01:40:00,
2013-02-07 19:45:00,23.6,20.6,30.26,ENE,65,3.5,3.5,88,0.00,OVC,,0.00,0.0,WeatherDisplay:10.37,2013-02-08 01:45:00,
2013-02-07 19:50:00,23.5,20.5,30.26,NE,56,1.1,1.1,88,0.00,OVC,,0.00,0.0,WeatherDisplay:10.37,2013-02-08 01:50:00,
2013-02-07 19:55:00,23.4,20.4,30.26,North,5,1.1,1.1,88,0.00,OVC,,0.00,0.0,WeatherDisplay:10.37,2013-02-08 01:55:00,
2013-02-07 20:00:00,23.4,20.4,30.26,North,355,2.3,2.3,88,0.00,OVC,,0.00,0.0,WeatherDisplay:10.37,2013-02-08 02:00:00,
2013-02-07 20:05:00,23.3,20.3,30.26,NE,51,1.1,1.1,88,0.00,OVC,,0.00,0.0,WeatherDisplay:10.37,2013-02-08 02:05:00,
2013-02-07 20:10:00,23.2,20.2,30.26,NE,50,3.5,3.5,88,0.00,OVC,,0.00,0.0,WeatherDisplay:10.37,2013-02-08 02:10:00,
2013-02-07 20:15:00,23.1,20.1,30.26,ENE,78,3.5,3.5,88,0.00,OVC,,0.00,0.0,WeatherDisplay:10.37,2013-02-08 02:15:00,
2013-02-07 20:20:00,23.0,20.0,30.26,NE,54,1.1,0.0,88,0.00,OVC,,0.00,0.0,WeatherDisplay:10.37,2013-02-08 02:20:00,
2013-02-07 20:25:00,23.0,20.0,30.26,ENE,61,2.3,2.3,88,0.00,OVC,,0.00,0.0,WeatherDisplay:10.37,2013-02-08 02:25:00,
2013-02-07 20:30:00,22.9,19.9,30.27,NE,55,3.0,3.0,88,0.00,OVC,,0.00,0.0,WeatherDisplay:10.37,2013-02-08 02:30:00,
2013-02-07 20:35:00,22.8,19.8,30.27,NE,46,1.1,1.1,88,0.00,OVC,,0.00,0.0,WeatherDisplay:10.37,2013-02-08 02:35:00,
2013-02-07 20:40:00,22.7,19.7,30.27,East,80,1.1,1.1,88,0.00,OVC,,0.00,0.0,WeatherDisplay:10.37,2013-02-08 02:40:00,
2013-02-07 20:45:00,22.6,19.3,30.27,NNE,13,3.5,3.5,87,0.00,OVC,,0.00,0.0,WeatherDisplay:10.37,2013-02-08 02:45:00,
2013-02-07 20:50:00,22.5,19.2,30.27,NE,52,4.6,4.6,87,0.00,OVC,,0.00,0.0,WeatherDisplay:10.37,2013-02-08 02:50:00,
2013-02-07 20:55:00,22.5,19.2,30.27,NE,54,3.5,3.5,87,0.00,OVC,,0.00,0.0,WeatherDisplay:10.37,2013-02-08 02:55:00,
2013-02-07 21:00:00,22.4,19.1,30.27,ENE,65,4.6,4.6,87,0.00,OVC,,0.00,0.0,WeatherDisplay:10.37,2013-02-08 03:00:00,
2013-02-07 21:06:00,22.3,19.0,30.27,NE,42,0.0,0.0,87,0.00,OVC,,0.00,0.0,WeatherDisplay:10.37,2013-02-08 03:06:00,
2013-02-07 21:11:00,22.3,19.0,30.28,ENE,59,2.3,2.3,87,0.00,OVC,,0.00,0.0,WeatherDisplay:10.37,2013-02-08 03:11:00,
2013-02-07 21:16:00,22.2,18.9,30.28,ENE,71,1.0,1.1,87,0.00,OVC,,0.00,0.0,WeatherDisplay:10.37,2013-02-08 03:16:00,
2013-02-07 21:21:00,22.2,18.9,30.28,East,85,3.5,3.5,87,0.00,OVC,,0.00,0.0,WeatherDisplay:10.37,2013-02-08 03:21:00,
2013-02-07 21:26:00,22.1,18.6,30.28,East,82,4.6,4.6,86,0.00,OVC,,0.00,0.0,WeatherDisplay:10.37,2013-02-08 03:26:00,
2013-02-07 21:31:00,22.0,18.7,30.28,ENE,61,1.1,0.0,87,0.00,OVC,,0.00,0.0,WeatherDisplay:10.37,2013-02-08 03:31:00,
2013-02-07 21:36:00,22.0,18.5,30.28,East,92,1.1,1.1,86,0.00,OVC,,0.00,0.0,WeatherDisplay:10.37,2013-02-08 03:36:00,
2013-02-07 21:41:00,21.9,18.4,30.28,ENE,65,4.6,4.6,86,0.00,OVC,,0.00,0.0,WeatherDisplay:10.37,2013-02-08 03:41:00,
2013-02-07 21:46:00,21.8,18.3,30.29,East,80,1.1,1.1,86,0.00,OVC,,0.00,0.0,WeatherDisplay:10.37,2013-02-08 03:46:00,
2013-02-07 21:51:00,21.8,18.3,30.29,ENE,74,2.0,2.0,86,0.00,OVC,,0.00,0.0,WeatherDisplay:10.37,2013-02-08 03:51:00,
2013-02-07 21:56:00,21.8,18.3,30.29,ENE,63,1.1,0.0,86,0.00,OVC,,0.00,0.0,WeatherDisplay:10.37,2013-02-08 03:56:00,
2013-02-07 22:01:00,21.8,18.3,30.29,East,96,2.3,2.3,86,0.00,BKN,,0.00,0.0,WeatherDisplay:10.37,2013-02-08 04:01:00,
2013-02-07 22:06:00,21.7,18.2,30.29,East,88,0.0,0.0,86,0.00,BKN,,0.00,0.0,WeatherDisplay:10.37,2013-02-08 04:06:00,
2013-02-07 22:11:00,21.6,18.1,30.29,ENE,69,2.3,2.3,86,0.00,BKN,,0.00,0.0,WeatherDisplay:10.37,2013-02-08 04:11:00,
2013-02-07 22:16:00,21.6,18.1,30.29,East,80,1.1,0.0,86,0.00,BKN,,0.00,0.0,WeatherDisplay:10.37,2013-02-08 04:16:00,
2013-02-07 22:21:00,21.5,18.0,30.29,ENE,63,1.1,1.1,86,0.00,BKN,,0.00,0.0,WeatherDisplay:10.37,2013-02-08 04:21:00,
2013-02-07 22:26:00,21.5,18.0,30.29,ENE,78,3.5,3.5,86,0.00,BKN,,0.00,0.0,WeatherDisplay:10.37,2013-02-08 04:26:00,
2013-02-07 22:31:00,21.3,17.8,30.29,ENE,74,4.6,4.6,86,0.00,BKN,,0.00,0.0,WeatherDisplay:10.37,2013-02-08 04:31:00,
2013-02-07 22:36:00,21.3,17.5,30.29,East,80,1.1,1.1,85,0.00,BKN,,0.00,0.0,WeatherDisplay:10.37,2013-02-08 04:36:00,
2013-02-07 22:41:00,21.1,17.3,30.29,East,80,1.0,0.0,85,0.00,BKN,,0.00,0.0,WeatherDisplay:10.37,2013-02-08 04:41:00,
2013-02-07 22:46:00,21.1,17.6,30.30,East,87,0.0,0.0,86,0.00,BKN,,0.00,0.0,WeatherDisplay:10.37,2013-02-08 04:46:00,
2013-02-07 22:51:00,20.9,17.1,30.30,East,82,0.0,0.0,85,0.00,BKN,,0.00,0.0,WeatherDisplay:10.37,2013-02-08 04:51:00,
2013-02-07 22:56:00,20.8,17.0,30.31,East,82,0.0,0.0,85,0.00,BKN,,0.00,0.0,WeatherDisplay:10.37,2013-02-08 04:56:00,
2013-02-07 23:00:00,20.7,16.9,30.31,East,82,0.0,0.0,85,0.00,BKN,,0.00,0.0,WeatherDisplay:10.37,2013-02-08 05:00:00,
2013-02-07 23:01:00,20.7,16.9,30.31,East,82,0.0,0.0,85,0.00,BKN,,0.00,0.0,WeatherDisplay:10.37,2013-02-08 05:01:00,
2013-02-07 23:06:00,20.4,16.6,30.31,East,82,0.0,0.0,85,0.00,BKN,,0.00,0.0,WeatherDisplay:10.37,2013-02-08 05:06:00,
2013-02-07 23:11:00,20.2,16.1,30.32,East,82,0.0,0.0,84,0.00,BKN,,0.00,0.0,WeatherDisplay:10.37,2013-02-08 05:11:00,
2013-02-07 23:16:00,19.9,15.8,30.32,East,82,0.0,0.0,84,0.00,CLR,,0.00,0.0,WeatherDisplay:10.37,2013-02-08 05:16:00,
2013-02-07 23:21:00,19.3,15.3,30.32,East,82,0.0,0.0,84,0.00,CLR,,0.00,0.0,WeatherDisplay:10.37,2013-02-08 05:21:00,
2013-02-07 23:26:00,18.8,14.8,30.32,East,82,0.0,0.0,84,0.00,CLR,,0.00,0.0,WeatherDisplay:10.37,2013-02-08 05:26:00,
2013-02-07 23:31:00,18.3,14.5,30.33,East,82,0.0,0.0,85,0.00,CLR,,0.00,0.0,WeatherDisplay:10.37,2013-02-08 05:31:00,
2013-02-07 23:36:00,18.0,14.5,30.33,East,82,0.0,0.0,86,0.00,CLR,,0.00,0.0,WeatherDisplay:10.37,2013-02-08 05:36:00,
2013-02-07 23:41:00,17.6,14.1,30.33,East,82,0.0,0.0,86,0.00,CLR,,0.00,0.0,WeatherDisplay:10.37,2013-02-08 05:41:00,
2013-02-07 23:46:00,17.5,14.3,30.34,East,82,0.0,0.0,87,0.00,CLR,,0.00,0.0,WeatherDisplay:10.37,2013-02-08 05:46:00,
2013-02-07 23:51:00,17.5,14.6,30.34,East,82,0.0,0.0,88,0.00,CLR,,0.00,0.0,WeatherDisplay:10.37,2013-02-08 05:51:00,
2013-02-07 23:56:00,17.7,15.0,30.34,East,82,0.0,0.0,89,0.00,CLR,,0.00,0.0,WeatherDisplay:10.37,2013-02-08 05:56:00,